Time;durP1;ratioP1;P1;durP2;ratioP2;P2;SDS_P1;SDS_P2;PMS_P1;PMS_P2;Temp;Humidity;BMP_temperature;BMP_pressure;BME280_temperature;BME280_humidity;BME280_pressure;Samples;Min_cycle;Max_cycle;Signal;HPM_P1;HPM_P2
2021/11/16 00:01:52;;;;;;;52.55;23.40;;;;;;;7.27;94.47;99293.59;5062667;28;20075;-66
2021/11/16 00:04:17;;;;;;;52.20;22.52;;;;;;;7.33;95.13;99285.78;5062461;28;20027;-66
2021/11/16 00:06:46;;;;;;;52.08;20.90;;;;;;;7.39;94.50;99291.03;5062887;28;20047;-66
2021/11/16 00:09:12;;;;;;;52.85;23.75;;;;;;;7.41;93.88;99286.69;5062263;28;20017;-66
2021/11/16 00:11:37;;;;;;;63.40;24.38;;;;;;;7.35;94.40;99294.53;5062261;28;20096;-66
2021/11/16 00:14:02;;;;;;;60.45;24.00;;;;;;;7.37;94.61;99287.53;5062445;28;20217;-66
2021/11/16 00:16:28;;;;;;;65.03;26.60;;;;;;;7.36;93.82;99296.28;5062467;28;20017;-66
2021/11/16 00:18:59;;;;;;;60.30;25.33;;;;;;;7.35;93.65;99289.28;5062566;28;20327;-66
2021/11/16 00:21:26;;;;;;;56.35;23.08;;;;;;;7.42;92.96;99296.28;5062768;28;20025;-66
2021/11/16 00:24:08;;;;;;;65.43;24.35;;;;;;;7.46;93.13;99292.81;5062459;28;20031;-66
2021/11/16 00:26:33;;;;;;;57.85;24.90;;;;;;;7.43;93.77;99291.94;5062302;28;20017;-66
2021/11/16 00:28:59;;;;;;;64.90;26.40;;;;;;;7.39;93.58;99296.28;5062295;28;20055;-66
2021/11/16 00:31:24;;;;;;;67.03;24.65;;;;;;;7.45;93.50;99293.69;5062192;28;20028;-66
2021/11/16 00:33:50;;;;;;;61.78;22.75;;;;;;;7.41;93.79;99294.56;5062686;28;20047;-66
2021/11/16 00:36:16;;;;;;;66.90;25.77;;;;;;;7.45;93.22;99296.31;5062092;28;20027;-66
2021/11/16 00:38:42;;;;;;;62.83;24.63;;;;;;;7.46;94.09;99292.81;5061858;28;20024;-66
2021/11/16 00:41:07;;;;;;;62.92;23.83;;;;;;;7.49;92.67;99297.16;5062905;28;20335;-66
2021/11/16 00:43:33;;;;;;;61.05;23.55;;;;;;;7.46;93.14;99298.03;5063204;28;20032;-66
2021/11/16 00:45:58;;;;;;;67.70;26.67;;;;;;;7.41;93.23;99288.44;5062973;28;20036;-66
2021/11/16 00:48:25;;;;;;;62.92;25.27;;;;;;;7.38;94.26;99294.53;5063198;28;20020;-66
2021/11/16 00:50:56;;;;;;;60.67;23.83;;;;;;;7.44;93.67;99291.91;5062984;28;20070;-66
2021/11/16 00:53:23;;;;;;;64.32;24.10;;;;;;;7.38;93.13;99294.53;5065838;28;20021;-66
2021/11/16 00:55:49;;;;;;;59.10;24.77;;;;;;;7.39;93.12;99291.03;5067094;28;20056;-66
2021/11/16 00:58:14;;;;;;;62.75;24.95;;;;;;;7.35;92.61;99299.75;5067024;28;20024;-66
2021/11/16 01:00:42;;;;;;;62.80;24.25;;;;;;;7.43;93.47;99303.28;5066769;28;20090;-66
2021/11/16 01:03:07;;;;;;;57.08;24.75;;;;;;;7.45;93.13;99306.78;5066983;28;20324;-66
2021/11/16 01:05:33;;;;;;;60.83;24.17;;;;;;;7.43;93.19;99303.28;5067083;28;20028;-66
2021/11/16 01:07:58;;;;;;;56.92;22.38;;;;;;;7.39;93.46;99304.13;5066830;28;20070;-66
2021/11/16 01:10:24;;;;;;;61.75;23.48;;;;;;;7.44;93.89;99310.25;5066811;28;20316;-66
2021/11/16 01:12:50;;;;;;;58.10;25.55;;;;;;;7.41;94.06;99315.50;5066611;28;20036;-66
2021/11/16 01:15:17;;;;;;;60.90;24.00;;;;;;;7.45;94.23;99306.78;5066647;28;20386;-66
2021/11/16 01:17:43;;;;;;;58.55;23.83;;;;;;;7.38;94.86;99305.00;5067138;28;20087;-66
2021/11/16 01:20:12;;;;;;;57.35;23.33;;;;;;;7.49;94.52;99313.78;5067038;28;20036;-66
2021/11/16 01:22:38;;;;;;;62.47;24.67;;;;;;;7.51;93.66;99301.56;5067039;28;20088;-66
2021/11/16 01:25:05;;;;;;;56.83;22.75;;;;;;;7.56;93.47;99299.81;5066591;28;20017;-66
2021/11/16 01:27:34;;;;;;;54.58;24.42;;;;;;;7.56;92.97;99297.19;5066524;28;20021;-66
2021/11/16 01:30:02;;;;;;;64.20;26.25;;;;;;;7.44;93.30;99291.91;5066711;28;20016;-66
2021/11/16 01:32:48;;;;;;;72.03;25.83;;;;;;;7.45;93.29;99296.31;5066110;28;20055;-66
2021/11/16 01:35:14;;;;;;;64.40;24.73;;;;;;;7.37;93.33;99289.28;5066305;28;20029;-66
2021/11/16 01:37:40;;;;;;;62.67;24.90;;;;;;;7.40;93.43;99292.78;5065910;28;20028;-66
2021/11/16 01:40:10;;;;;;;64.00;25.35;;;;;;;7.37;93.94;99287.53;5066181;28;20088;-66
2021/11/16 01:42:35;;;;;;;58.22;23.10;;;;;;;7.34;93.61;99287.53;5066210;28;20059;-66
2021/11/16 01:45:02;;;;;;;64.32;25.58;;;;;;;7.36;93.70;99291.03;5065794;28;20021;-66
2021/11/16 01:47:27;;;;;;;59.63;23.67;;;;;;;7.32;94.59;99289.28;5065925;28;20024;-66
2021/11/16 01:49:53;;;;;;;53.58;22.73;;;;;;;7.35;94.04;99284.06;5066151;28;20255;-66
2021/11/16 01:52:19;;;;;;;61.10;24.15;;;;;;;7.31;93.84;99286.66;5065865;28;20328;-66
2021/11/16 01:54:45;;;;;;;68.75;25.30;;;;;;;7.34;93.78;99287.53;5065710;28;20021;-66
2021/11/16 01:57:11;;;;;;;61.47;24.65;;;;;;;7.35;94.49;99283.16;5066213;28;20090;-66
2021/11/16 01:59:36;;;;;;;64.50;24.30;;;;;;;7.37;95.45;99286.69;5066241;28;20066;-66
2021/11/16 02:02:03;;;;;;;52.88;21.52;;;;;;;7.43;95.12;99274.47;5066358;28;20020;-66
2021/11/16 02:04:29;;;;;;;60.58;24.52;;;;;;;7.34;95.09;99281.44;5065108;28;20036;-66
2021/11/16 02:06:54;;;;;;;66.00;26.27;;;;;;;7.36;95.16;99275.31;5065815;28;20197;-66
2021/11/16 02:09:20;;;;;;;58.40;24.13;;;;;;;7.40;95.40;99277.06;5065599;28;20017;-66
2021/11/16 02:11:45;;;;;;;66.32;26.95;;;;;;;7.39;96.58;99277.06;5065655;28;20032;-66
2021/11/16 02:14:14;;;;;;;56.78;24.33;;;;;;;7.39;95.04;99272.72;5065497;28;20037;-66
2021/11/16 02:16:40;;;;;;;56.75;24.73;;;;;;;7.43;94.05;99271.00;5065321;28;20041;-66
2021/11/16 02:19:09;;;;;;;69.68;26.80;;;;;;;7.38;93.66;99273.59;5065376;28;20020;-66
2021/11/16 02:21:35;;;;;;;63.03;25.92;;;;;;;7.45;93.74;99275.34;5064450;28;20098;-66
2021/11/16 02:24:00;;;;;;;61.88;24.73;;;;;;;7.46;94.69;99271.84;5065464;28;20025;-66
2021/11/16 02:26:26;;;;;;;68.53;26.30;;;;;;;7.36;94.30;99262.22;5065469;28;20088;-66
2021/11/16 02:28:53;;;;;;;57.47;24.40;;;;;;;7.25;95.34;99256.09;5065813;28;20070;-66
2021/11/16 02:31:19;;;;;;;58.92;25.40;;;;;;;7.28;95.20;99261.31;5065764;28;20055;-66
2021/11/16 02:33:46;;;;;;;60.55;26.15;;;;;;;7.28;95.81;99256.06;5065661;28;20021;-66
2021/11/16 02:36:12;;;;;;;55.10;23.50;;;;;;;7.37;94.99;99256.09;5065151;28;20025;-66
2021/11/16 02:38:39;;;;;;;70.13;27.80;;;;;;;7.38;95.70;99257.00;5065097;28;20082;-66
2021/11/16 02:41:05;;;;;;;64.03;25.33;;;;;;;7.30;95.52;99254.34;5064960;28;20322;-66
2021/11/16 02:43:34;;;;;;;64.15;28.15;;;;;;;7.31;95.48;99252.63;5064943;28;20013;-66
2021/11/16 02:46:02;;;;;;;65.65;26.15;;;;;;;7.28;95.39;99247.38;5064818;28;20021;-66
2021/11/16 02:48:27;;;;;;;61.67;25.52;;;;;;;7.38;95.33;99246.53;5065058;28;20028;-66
2021/11/16 02:50:58;;;;;;;71.13;26.58;;;;;;;7.32;95.72;99239.53;5064722;28;20020;-66
2021/11/16 02:53:24;;;;;;;56.70;25.40;;;;;;;7.37;95.61;99245.63;5064908;28;20024;-66
2021/11/16 02:55:49;;;;;;;70.35;26.05;;;;;;;7.24;95.21;99230.75;5064925;28;20021;-66
2021/11/16 02:58:16;;;;;;;56.08;25.23;;;;;;;7.33;94.80;99238.66;5064947;28;20032;-66
2021/11/16 03:00:46;;;;;;;60.35;25.98;;;;;;;7.29;95.17;99236.91;5064702;28;20028;-66
2021/11/16 03:03:12;;;;;;;62.65;25.13;;;;;;;7.32;96.12;99230.78;5064750;28;20024;-66
2021/11/16 03:05:38;;;;;;;64.05;26.35;;;;;;;7.26;95.32;99231.66;5064490;28;20016;-66
2021/11/16 03:08:20;;;;;;;65.95;26.63;;;;;;;7.39;93.82;99236.06;5064420;28;20084;-66
2021/11/16 03:10:45;;;;;;;64.10;25.48;;;;;;;7.40;94.25;99235.16;5064574;28;20029;-66
2021/11/16 03:13:12;;;;;;;56.55;25.80;;;;;;;7.34;94.01;99229.06;5064169;28;20071;-66
2021/11/16 03:15:40;;;;;;;57.90;23.42;;;;;;;7.41;94.65;99223.84;5063409;28;20355;-66
2021/11/16 03:18:06;;;;;;;70.22;28.38;;;;;;;7.34;94.68;99224.69;5064147;28;20025;-66
2021/11/16 03:20:32;;;;;;;66.57;26.20;;;;;;;7.37;94.41;99218.59;5064349;28;20025;-66
2021/11/16 03:23:08;;;;;;;63.95;25.80;;;;;;;7.40;93.91;99223.84;5064266;28;20216;-66
2021/11/16 03:25:36;;;;;;;59.08;25.10;;;;;;;7.32;93.87;99234.28;5063944;28;20216;-66
2021/11/16 03:28:06;;;;;;;63.08;25.98;;;;;;;7.32;94.27;99234.28;5064101;28;20130;-66
2021/11/16 03:30:33;;;;;;;60.85;26.25;;;;;;;7.17;96.11;99226.38;5064611;28;20020;-66
2021/11/16 03:32:59;;;;;;;61.35;25.80;;;;;;;7.23;95.51;99223.78;5064498;28;20021;-66
2021/11/16 03:35:24;;;;;;;68.20;25.05;;;;;;;7.31;95.79;99235.13;5064442;28;20036;-66
2021/11/16 03:37:54;;;;;;;59.13;24.42;;;;;;;7.40;95.83;99232.56;5064650;28;20040;-66
2021/11/16 03:40:22;;;;;;;64.35;25.67;;;;;;;7.34;96.60;99224.69;5064472;28;20025;-66
2021/11/16 03:42:49;;;;;;;55.47;24.40;;;;;;;7.36;96.49;99227.28;5064752;28;20082;-66
2021/11/16 03:45:18;;;;;;;65.22;26.48;;;;;;;7.33;96.02;99217.69;5064408;28;20094;-66
2021/11/16 03:47:44;;;;;;;69.43;27.38;;;;;;;7.32;95.69;99221.19;5064589;28;20047;-66
2021/11/16 03:50:14;;;;;;;64.35;25.15;;;;;;;7.28;95.49;99222.03;5064497;28;20193;-66
2021/11/16 03:52:42;;;;;;;67.20;25.85;;;;;;;7.26;94.83;99226.41;5064289;28;20255;-66
2021/11/16 03:55:10;;;;;;;57.75;22.95;;;;;;;7.38;93.69;99221.22;5064397;28;20029;-66
2021/11/16 03:57:36;;;;;;;61.85;24.95;;;;;;;7.48;93.32;99222.97;5064188;28;20336;-66
2021/11/16 04:00:13;;;;;;;66.60;25.63;;;;;;;7.46;93.07;99224.72;5064115;28;20088;-66
2021/11/16 04:02:39;;;;;;;68.95;28.00;;;;;;;7.45;93.75;99222.97;5063844;28;20048;-66
2021/11/16 04:05:05;;;;;;;61.42;25.58;;;;;;;7.42;94.09;99217.72;5056176;28;20318;-66
2021/11/16 04:07:31;;;;;;;67.25;27.05;;;;;;;7.42;93.63;99216.84;5063326;28;20031;-66
2021/11/16 04:09:57;;;;;;;58.00;24.48;;;;;;;7.44;93.57;99215.97;5063572;28;20377;-66
2021/11/16 04:12:23;;;;;;;62.28;27.30;;;;;;;7.40;93.21;99214.22;5063522;28;20025;-66
2021/11/16 04:14:49;;;;;;;63.80;26.77;;;;;;;7.39;93.89;99207.25;5062912;28;20087;-66
2021/11/16 04:17:14;;;;;;;60.90;26.15;;;;;;;7.45;93.37;99212.50;5063301;28;20071;-66
2021/11/16 04:19:40;;;;;;;53.92;24.88;;;;;;;7.40;94.63;99214.22;5063206;28;20020;-66
2021/11/16 04:22:05;;;;;;;63.20;25.55;;;;;;;7.37;95.47;99206.34;5063319;28;20024;-66
2021/11/16 04:24:31;;;;;;;59.10;25.90;;;;;;;7.29;96.16;99205.47;5063883;28;20024;-66
2021/11/16 04:26:56;;;;;;;66.43;25.85;;;;;;;7.26;96.19;99208.09;5063576;28;20021;-66
2021/11/16 04:29:22;;;;;;;64.30;27.73;;;;;;;7.30;95.64;99204.59;5063722;28;20025;-66
2021/11/16 04:31:48;;;;;;;71.85;28.98;;;;;;;7.26;95.18;99209.81;5063765;28;20025;-66
2021/11/16 04:34:13;;;;;;;61.03;24.73;;;;;;;7.38;94.72;99205.50;5063368;28;20053;-66
2021/11/16 04:36:39;;;;;;;67.43;27.77;;;;;;;7.32;95.70;99210.72;5062990;28;20251;-66
2021/11/16 04:39:06;;;;;;;67.15;25.48;;;;;;;7.38;95.83;99205.50;5063322;28;20024;-66
2021/11/16 04:41:34;;;;;;;63.45;25.20;;;;;;;7.43;95.35;99209.00;5063954;28;20097;-66
2021/11/16 04:44:01;;;;;;;63.05;25.23;;;;;;;7.39;95.30;99207.25;5063389;28;20048;-66
2021/11/16 04:46:26;;;;;;;65.72;26.67;;;;;;;7.34;95.17;99208.97;5063127;28;20059;-66
2021/11/16 04:48:57;;;;;;;65.82;27.35;;;;;;;7.37;95.56;99214.22;5061941;28;20048;-66
2021/11/16 04:51:54;;;;;;;68.88;26.38;;;;;;;7.37;95.74;99211.59;5063436;28;20082;-66
2021/11/16 05:02:40;;;;;;;73.57;25.52;;;;;;;7.42;96.20;99208.97;5063347;28;20035;-66
2021/11/16 05:05:17;;;;;;;58.00;23.10;;;;;;;7.44;96.62;99215.97;5063168;28;20283;-66
2021/11/16 05:07:53;;;;;;;60.97;26.50;;;;;;;7.38;96.63;99215.09;5061189;28;20021;-66
2021/11/16 05:10:19;;;;;;;51.25;23.25;;;;;;;7.39;96.68;99212.47;5062539;28;20216;-66
2021/11/16 05:12:45;;;;;;;57.22;24.83;;;;;;;7.42;97.06;99211.59;5063117;28;20048;-66
2021/11/16 05:15:15;;;;;;;59.10;25.15;;;;;;;7.41;97.04;99209.88;5063110;28;20108;-66
2021/11/16 05:17:42;;;;;;;69.07;27.85;;;;;;;7.34;96.30;99208.97;5063631;28;20308;-66
2021/11/16 05:20:08;;;;;;;69.43;26.77;;;;;;;7.34;96.80;99208.97;5063298;28;20032;-66
2021/11/16 05:22:33;;;;;;;62.35;25.20;;;;;;;7.36;96.42;99212.47;5063229;28;20092;-66
2021/11/16 05:24:59;;;;;;;66.15;26.02;;;;;;;7.25;96.50;99206.34;5063256;28;20036;-66
2021/11/16 05:27:25;;;;;;;62.25;27.95;;;;;;;7.22;96.54;99211.56;5063231;28;20111;-66
2021/11/16 05:29:50;;;;;;;69.82;27.02;;;;;;;7.34;95.97;99203.72;5063253;28;20056;-66
2021/11/16 05:32:16;;;;;;;58.40;25.08;;;;;;;7.38;95.51;99205.50;5063215;28;20025;-66
2021/11/16 05:34:42;;;;;;;67.00;26.35;;;;;;;7.21;97.03;99201.94;5063169;28;20028;-66
2021/11/16 05:37:07;;;;;;;57.63;23.52;;;;;;;7.12;97.89;99206.28;5063346;28;20025;-66
2021/11/16 05:39:33;;;;;;;64.53;25.65;;;;;;;7.06;97.84;99207.16;5064348;28;20125;-66
2021/11/16 05:41:59;;;;;;;76.25;27.45;;;;;;;7.08;97.60;99200.16;5066774;28;20327;-66
2021/11/16 05:44:25;;;;;;;70.60;28.80;;;;;;;7.11;96.52;99204.53;5066737;28;20125;-66
2021/11/16 05:46:50;;;;;;;78.60;28.80;;;;;;;7.22;96.63;99208.97;5066599;28;20029;-66
2021/11/16 05:49:16;;;;;;;58.05;25.80;;;;;;;7.26;96.36;99212.44;5066557;28;20032;-66
2021/11/16 05:51:41;;;;;;;65.38;26.27;;;;;;;7.16;96.63;99214.16;5066534;28;20059;-66
2021/11/16 05:54:14;;;;;;;67.97;25.48;;;;;;;7.17;96.86;99215.91;5066450;28;20050;-66
2021/11/16 05:56:40;;;;;;;67.93;26.55;;;;;;;7.13;97.31;99219.41;5066647;28;20017;-66
2021/11/16 05:59:05;;;;;;;70.95;26.90;;;;;;;7.15;97.56;99220.25;5066389;28;20255;-66
2021/11/16 06:01:34;;;;;;;63.10;25.73;;;;;;;7.21;97.19;99217.66;5066342;28;20027;-66
2021/11/16 06:03:59;;;;;;;53.05;21.75;;;;;;;7.25;96.48;99216.81;5066211;28;20055;-66
2021/11/16 06:06:30;;;;;;;62.90;26.13;;;;;;;7.29;96.60;99226.41;5066283;28;20209;-66
2021/11/16 06:08:58;;;;;;;65.45;24.73;;;;;;;7.29;96.83;99220.31;5064824;28;20029;-66
2021/11/16 06:11:24;;;;;;;69.60;28.58;;;;;;;7.30;95.90;99217.69;5065939;28;20025;-66
2021/11/16 06:13:52;;;;;;;70.03;27.50;;;;;;;7.24;96.45;99217.66;5066013;28;20025;-66
2021/11/16 06:16:18;;;;;;;76.50;28.70;;;;;;;7.16;97.23;99214.16;5065973;28;20088;-66
2021/11/16 06:19:06;;;;;;;69.97;27.83;;;;;;;7.21;96.94;99222.88;5066019;28;20029;-66
2021/11/16 06:21:32;;;;;;;78.70;27.67;;;;;;;7.27;96.70;99222.91;5066017;28;20047;-66
2021/11/16 06:23:58;;;;;;;64.22;25.83;;;;;;;7.29;96.12;99225.53;5065926;28;20028;-66
2021/11/16 06:26:25;;;;;;;66.43;27.42;;;;;;;7.30;95.15;99225.53;5065910;28;20232;-66
2021/11/16 06:28:51;;;;;;;76.30;27.10;;;;;;;7.33;95.19;99228.16;5066107;28;20331;-66
2021/11/16 06:31:20;;;;;;;64.65;26.48;;;;;;;7.28;95.80;99229.88;5066031;28;20021;-66
2021/11/16 06:33:47;;;;;;;65.07;27.17;;;;;;;7.37;95.29;99235.16;5065732;28;20020;-66
2021/11/16 06:36:13;;;;;;;70.90;27.63;;;;;;;7.44;95.73;99231.69;5065595;28;20028;-66
2021/11/16 06:38:38;;;;;;;69.93;27.58;;;;;;;7.44;95.87;99243.91;5064474;28;20063;-66
2021/11/16 06:41:04;;;;;;;70.00;27.17;;;;;;;7.33;96.16;99245.63;5065527;28;20020;-66
2021/11/16 06:43:31;;;;;;;69.07;27.92;;;;;;;7.22;96.22;99245.59;5065525;28;20272;-66
2021/11/16 06:45:59;;;;;;;69.95;27.80;;;;;;;7.22;97.24;99243.00;5065487;28;20020;-66
2021/11/16 06:48:24;;;;;;;75.03;29.35;;;;;;;7.22;97.34;99249.97;5065496;28;20066;-66
2021/11/16 06:50:53;;;;;;;74.95;30.75;;;;;;;7.16;97.16;99250.81;5065333;28;20021;-66
2021/11/16 06:53:45;;;;;;;71.05;27.17;;;;;;;7.28;97.45;99255.22;5065336;28;20024;-66
2021/11/16 06:56:11;;;;;;;73.85;31.83;;;;;;;7.24;96.54;99254.31;5064118;28;20048;-66
2021/11/16 06:58:36;;;;;;;66.75;29.75;;;;;;;7.30;96.01;99263.94;5065245;28;20032;-66
2021/11/16 07:01:05;;;;;;;62.45;28.20;;;;;;;7.33;95.53;99264.84;5065378;28;20036;-66
2021/11/16 07:03:32;;;;;;;76.28;29.60;;;;;;;7.27;95.64;99270.03;5065338;28;20085;-66
2021/11/16 07:06:00;;;;;;;78.68;30.75;;;;;;;7.30;96.34;99269.16;5065061;28;20084;-66
2021/11/16 07:08:34;;;;;;;65.22;28.17;;;;;;;7.35;95.97;99275.31;5065071;28;20036;-66
2021/11/16 07:11:07;;;;;;;67.95;28.75;;;;;;;7.37;95.62;99271.81;5065245;28;20212;-66
2021/11/16 07:13:35;;;;;;;75.95;29.20;;;;;;;7.42;95.88;99279.69;5064902;28;20017;-66
2021/11/16 07:16:00;;;;;;;70.13;30.33;;;;;;;7.37;96.15;99274.44;5064654;28;20237;-66
2021/11/16 07:18:25;;;;;;;68.78;28.67;;;;;;;7.41;95.95;99277.94;5064834;28;20024;-66
2021/11/16 07:20:59;;;;;;;73.22;29.02;;;;;;;7.46;95.71;99271.84;5065072;28;20027;-66
2021/11/16 07:23:25;;;;;;;83.60;30.50;;;;;;;7.39;95.72;99270.09;5064742;28;20031;-66
2021/11/16 07:25:50;;;;;;;74.15;30.08;;;;;;;7.35;95.44;99268.34;5056193;28;20041;-66
2021/11/16 07:28:16;;;;;;;71.50;29.27;;;;;;;7.33;96.64;99270.06;5058888;28;20020;-66
2021/11/16 07:30:41;;;;;;;71.82;29.55;;;;;;;7.36;96.61;99275.31;5064843;28;20095;-66
2021/11/16 07:33:10;;;;;;;78.18;30.55;;;;;;;7.30;97.08;99285.75;5064602;28;20078;-66
2021/11/16 07:35:38;;;;;;;70.40;29.58;;;;;;;7.38;97.17;99277.94;5064496;28;20029;-66
2021/11/16 07:38:06;;;;;;;76.28;30.45;;;;;;;7.44;96.53;99284.06;5064463;28;20145;-66
2021/11/16 07:40:34;;;;;;;81.28;32.65;;;;;;;7.44;96.58;99284.06;5064488;28;20025;-66
2021/11/16 07:43:01;;;;;;;76.32;29.73;;;;;;;7.38;96.49;99286.69;5064461;28;20214;-66
2021/11/16 07:45:43;;;;;;;81.05;33.80;;;;;;;7.41;96.62;99284.09;5064423;28;20044;-66
2021/11/16 07:48:14;;;;;;;86.70;33.47;;;;;;;7.32;97.41;99284.03;5064389;28;20044;-66
2021/11/16 07:51:20;;;;;;;84.47;32.25;;;;;;;7.34;97.34;99282.28;5064321;28;20055;-66
2021/11/16 07:53:47;;;;;;;78.97;31.05;;;;;;;7.35;97.24;99289.28;5030997;28;20029;-66
2021/11/16 07:56:15;;;;;;;83.97;32.88;;;;;;;7.19;97.29;99277.00;5064391;28;20044;-66
2021/11/16 07:58:55;;;;;;;85.22;31.55;;;;;;;7.26;97.63;99273.53;5064402;28;20340;-66
2021/11/16 08:14:56;;;;;;;84.22;31.45;;;;;;;7.41;97.78;99273.59;5055167;28;20053;-66
2021/11/16 08:17:24;;;;;;;86.40;32.50;;;;;;;7.40;97.92;99277.06;5060559;28;20056;-66
2021/11/16 08:19:55;;;;;;;80.72;31.35;;;;;;;7.38;97.95;99278.81;5050931;28;20029;-66
2021/11/16 08:22:21;;;;;;;88.80;32.00;;;;;;;7.38;97.89;99273.59;5044166;28;20392;-66
2021/11/16 08:24:51;;;;;;;81.15;32.45;;;;;;;7.33;98.12;99271.81;5060860;28;20028;-66
2021/11/16 08:27:23;;;;;;;80.25;31.23;;;;;;;7.45;97.57;99275.34;5063806;28;20062;-66
2021/11/16 08:29:57;;;;;;;79.63;30.98;;;;;;;7.41;97.96;99267.47;5063799;28;20031;-66
2021/11/16 08:32:24;;;;;;;74.22;30.42;;;;;;;7.49;97.25;99271.88;5063840;28;20024;-66
2021/11/16 08:34:53;;;;;;;98.70;33.85;;;;;;;7.47;97.42;99273.59;5063690;28;20025;-66
2021/11/16 08:37:20;;;;;;;87.85;32.05;;;;;;;7.51;96.50;99274.50;5063664;28;20025;-66
2021/11/16 08:39:49;;;;;;;82.55;32.00;;;;;;;7.56;97.00;99278.88;5063939;28;20088;-66
2021/11/16 08:42:39;;;;;;;83.38;32.45;;;;;;;7.48;96.50;99267.50;5063926;28;20025;-66
2021/11/16 08:45:10;;;;;;;83.75;32.58;;;;;;;7.46;97.32;99277.09;5056564;28;20056;-66
2021/11/16 08:47:40;;;;;;;80.72;32.80;;;;;;;7.57;96.45;99285.88;5063679;28;20036;-66
2021/11/16 08:50:16;;;;;;;83.35;32.80;;;;;;;7.60;96.50;99278.03;5063638;28;20028;-66
2021/11/16 08:52:42;;;;;;;81.95;31.00;;;;;;;7.43;97.37;99281.47;5063590;28;20096;-66
2021/11/16 08:55:13;;;;;;;81.03;30.60;;;;;;;7.49;96.94;99284.97;5063739;28;20052;-66
2021/11/16 08:57:44;;;;;;;83.77;31.77;;;;;;;7.57;96.97;99280.63;5063545;28;20126;-66
2021/11/16 09:00:22;;;;;;;85.13;31.15;;;;;;;7.51;96.15;99288.47;5063545;28;20264;-66
2021/11/16 09:02:49;;;;;;;83.30;32.20;;;;;;;7.50;96.22;99280.59;5054692;28;20029;-66
2021/11/16 09:05:17;;;;;;;74.32;28.45;;;;;;;7.44;97.26;99281.44;5053175;28;20020;-66
2021/11/16 09:07:48;;;;;;;81.05;31.33;;;;;;;7.35;97.41;99283.16;5054011;28;20332;-66
2021/11/16 09:10:14;;;;;;;80.03;30.85;;;;;;;7.34;97.48;99277.03;5052814;28;20411;-66
2021/11/16 09:12:47;;;;;;;86.65;31.55;;;;;;;7.38;98.63;99276.22;5051339;28;20022;-66
2021/11/16 09:15:21;;;;;;;82.80;32.03;;;;;;;7.30;97.77;99275.28;5045648;28;20276;-66
2021/11/16 09:17:47;;;;;;;88.53;33.40;;;;;;;7.25;98.15;99278.78;5047192;28;20067;-66
2021/11/16 09:20:23;;;;;;;80.25;32.05;;;;;;;7.32;99.16;99283.16;5054769;28;20053;-66
2021/11/16 09:22:50;;;;;;;80.10;31.90;;;;;;;7.42;99.17;99275.34;5065500;28;20384;-66
2021/11/16 09:25:40;;;;;;;87.60;32.92;;;;;;;7.42;99.43;99280.59;5069179;28;20050;-66
2021/11/16 09:28:36;;;;;;;72.05;31.08;;;;;;;7.47;98.91;99286.69;5050467;28;20358;-66
2021/11/16 09:31:17;;;;;;;78.22;30.58;;;;;;;7.47;99.00;99281.44;5066982;28;20016;-66
2021/11/16 09:33:43;;;;;;;96.40;33.65;;;;;;;7.41;98.58;99288.44;5067110;28;20216;-66
2021/11/16 09:36:08;;;;;;;75.50;30.42;;;;;;;7.48;98.14;99295.44;5067004;28;20020;-66
2021/11/16 09:38:44;;;;;;;82.22;31.23;;;;;;;7.50;97.92;99288.47;5071193;28;20021;-66
2021/11/16 09:41:12;;;;;;;75.15;29.42;;;;;;;7.47;98.57;99286.69;5046843;28;20063;-66
2021/11/16 09:43:38;;;;;;;86.07;30.75;;;;;;;7.47;98.22;99294.53;5049209;28;20021;-66
2021/11/16 09:46:14;;;;;;;76.85;31.50;;;;;;;7.52;98.33;99303.31;5055150;28;20063;-66
2021/11/16 09:48:40;;;;;;;86.72;30.75;;;;;;;7.45;98.14;99306.78;5056668;28;20045;-66
2021/11/16 09:51:26;;;;;;;82.38;30.75;;;;;;;7.49;97.89;99299.78;5052218;28;20041;-66
2021/11/16 09:54:02;;;;;;;82.95;29.80;;;;;;;7.53;98.31;99284.09;5056993;28;20017;-66
2021/11/16 09:56:29;;;;;;;80.75;29.65;;;;;;;7.51;98.32;99284.97;5057122;28;20028;-66
2021/11/16 09:58:57;;;;;;;86.55;30.98;;;;;;;7.49;98.44;99284.97;5055735;28;20324;-66
2021/11/16 10:01:32;;;;;;;74.88;29.80;;;;;;;7.60;97.76;99283.25;5055507;28;20024;-66
2021/11/16 10:04:23;;;;;;;81.65;31.35;;;;;;;7.56;97.82;99284.09;5056951;28;20023;-66
2021/11/16 10:06:48;;;;;;;68.90;25.73;;;;;;;7.62;97.25;99284.13;5057184;28;20145;-66
2021/11/16 10:09:14;;;;;;;79.85;30.30;;;;;;;7.53;97.61;99272.75;5056642;28;20032;-66
2021/11/16 10:11:42;;;;;;;79.88;29.00;;;;;;;7.54;98.02;99275.38;5048812;28;20032;-66
2021/11/16 10:14:09;;;;;;;75.55;28.73;;;;;;;7.59;98.12;99283.25;5046013;28;20336;-66
2021/11/16 10:16:35;;;;;;;67.00;26.35;;;;;;;7.58;97.53;99274.50;5046114;28;20115;-66
2021/11/16 10:19:00;;;;;;;80.10;30.73;;;;;;;7.53;97.67;99271.00;5062300;28;20025;-66
2021/11/16 10:21:26;;;;;;;82.38;30.90;;;;;;;7.57;97.74;99280.63;5066012;28;20025;-66
2021/11/16 10:23:55;;;;;;;74.53;28.48;;;;;;;7.51;98.53;99275.38;5066181;28;20083;-66
2021/11/16 10:26:20;;;;;;;80.32;29.45;;;;;;;7.51;98.83;99271.88;5062051;28;20029;-66
2021/11/16 10:28:48;;;;;;;70.88;30.05;;;;;;;7.57;98.66;99267.53;5083694;28;20035;-66
2021/11/16 10:31:15;;;;;;;74.55;29.20;;;;;;;7.60;98.36;99269.28;5065790;28;20020;-66
2021/11/16 10:33:46;;;;;;;80.68;28.95;;;;;;;7.59;98.48;99267.53;5072264;28;20031;-66
2021/11/16 10:36:14;;;;;;;85.07;31.20;;;;;;;7.58;97.84;99269.28;5085986;28;20062;-66
2021/11/16 10:38:46;;;;;;;77.20;29.65;;;;;;;7.69;98.01;99264.91;5085645;28;20092;-66
2021/11/16 10:41:18;;;;;;;81.10;30.27;;;;;;;7.67;98.73;99266.69;5085650;28;20083;-66
2021/11/16 10:43:49;;;;;;;68.53;28.20;;;;;;;7.58;98.09;99274.50;5066477;28;20036;-66
2021/11/16 10:46:18;;;;;;;78.40;27.63;;;;;;;7.61;97.57;99271.91;5065543;28;20135;-66
2021/11/16 10:48:45;;;;;;;79.05;30.38;;;;;;;7.53;97.53;99271.00;5065485;28;20044;-66
2021/11/16 10:51:13;;;;;;;72.55;28.15;;;;;;;7.58;98.30;99261.41;5058019;28;20035;-66
2021/11/16 10:53:45;;;;;;;83.13;29.13;;;;;;;7.70;98.36;99268.44;5059606;28;20084;-66
2021/11/16 10:56:10;;;;;;;;;;;;;;;7.70;97.99;99266.69;5076121;28;20024;-66
2021/11/16 10:58:41;;;;;;;66.63;27.08;;;;;;;7.66;96.18;99261.44;5070431;28;19912;-66
2021/11/16 11:01:11;;;;;;;62.15;25.58;;;;;;;7.76;95.52;99261.47;5065415;28;20233;-66
2021/11/16 11:03:45;;;;;;;65.47;25.05;;;;;;;7.67;95.52;99250.09;5085373;28;20025;-66
2021/11/16 11:06:12;;;;;;;69.30;26.20;;;;;;;7.66;96.22;99241.34;5062042;28;20025;-66
2021/11/16 11:08:37;;;;;;;67.00;25.77;;;;;;;7.71;95.96;99252.72;5052989;28;20032;-66
2021/11/16 11:11:06;;;;;;;60.83;24.08;;;;;;;7.68;96.38;99247.47;5053299;28;20033;-66
2021/11/16 11:13:33;;;;;;;65.78;25.33;;;;;;;7.73;96.77;99242.22;5054416;28;20021;-66
2021/11/16 11:15:59;;;;;;;68.35;24.70;;;;;;;7.79;97.05;99240.47;5053693;28;20118;-66
2021/11/16 11:18:32;;;;;;;63.72;25.08;;;;;;;7.77;96.35;99247.47;5055565;28;20025;-66
2021/11/16 11:20:58;;;;;;;;;;;;;;;7.84;95.11;99243.09;5055768;28;20084;-66
2021/11/16 11:23:40;;;;;;;62.65;24.67;;;;;;;7.83;94.81;99244.88;5057411;28;20204;-66
2021/11/16 11:29:30;;;;;;;56.80;22.15;;;;;;;7.81;95.31;99233.50;5064784;28;20219;-66
2021/11/16 11:32:24;;;;;;;63.78;24.30;;;;;;;7.83;96.42;99230.88;5064714;28;20040;-66
2021/11/16 11:35:00;;;;;;;64.57;24.33;;;;;;;7.66;96.36;99233.47;5062953;28;20041;-66
2021/11/16 11:37:35;;;;;;;59.53;25.40;;;;;;;7.75;96.60;99228.25;5054710;28;20399;-66
2021/11/16 11:40:05;;;;;;;66.40;26.33;;;;;;;7.73;97.26;99227.41;5054859;28;20021;-66
2021/11/16 11:42:35;;;;;;;60.55;24.48;;;;;;;7.78;95.60;99227.41;5055178;28;20028;-66
2021/11/16 11:45:08;;;;;;;57.80;23.88;;;;;;;7.65;94.97;99221.25;5055023;28;20025;-66
2021/11/16 11:47:35;;;;;;;54.72;23.13;;;;;;;7.71;95.38;99231.75;5055351;28;20025;-66
2021/11/16 11:50:17;;;;;;;53.13;21.25;;;;;;;7.76;95.15;99213.41;5050585;28;20029;-66
2021/11/16 11:52:43;;;;;;;58.05;24.10;;;;;;;7.69;94.57;99207.28;5055038;28;20021;-66
2021/11/16 11:55:09;;;;;;;64.35;24.08;;;;;;;7.70;95.34;99211.66;5053753;28;20048;-66
2021/11/16 11:57:35;;;;;;;60.30;23.52;;;;;;;7.71;95.45;99210.78;5058757;28;20066;-66
2021/11/16 12:00:01;;;;;;;56.83;22.67;;;;;;;7.75;95.63;99212.53;5055837;28;20098;-66